sensor_id;sensor_type;location;lat;lon;timestamp;temperature;humidity
46458;DHT22;32155;54.076;12.092;2022-07-21T00:01:56;24.60;95.60
46458;DHT22;32155;54.076;12.092;2022-07-21T00:04:24;24.60;96.20
46458;DHT22;32155;54.076;12.092;2022-07-21T00:06:50;24.50;96.10
46458;DHT22;32155;54.076;12.092;2022-07-21T00:09:16;24.40;96.70
46458;DHT22;32155;54.076;12.092;2022-07-21T00:11:42;24.40;97.00
46458;DHT22;32155;54.076;12.092;2022-07-21T00:14:08;24.30;97.50
46458;DHT22;32155;54.076;12.092;2022-07-21T00:16:34;24.30;98.10
46458;DHT22;32155;54.076;12.092;2022-07-21T00:19:00;24.20;98.40
46458;DHT22;32155;54.076;12.092;2022-07-21T00:21:26;24.10;98.80
46458;DHT22;32155;54.076;12.092;2022-07-21T00:23:52;24.00;99.30
46458;DHT22;32155;54.076;12.092;2022-07-21T00:26:18;24.00;99.80
46458;DHT22;32155;54.076;12.092;2022-07-21T00:28:43;24.00;99.90
46458;DHT22;32155;54.076;12.092;2022-07-21T00:31:11;23.90;99.90
46458;DHT22;32155;54.076;12.092;2022-07-21T00:33:39;23.90;99.90
46458;DHT22;32155;54.076;12.092;2022-07-21T00:36:05;23.80;99.90
46458;DHT22;32155;54.076;12.092;2022-07-21T00:38:32;23.80;99.90
46458;DHT22;32155;54.076;12.092;2022-07-21T00:41:01;23.70;99.90
46458;DHT22;32155;54.076;12.092;2022-07-21T00:43:26;23.70;99.90
46458;DHT22;32155;54.076;12.092;2022-07-21T00:45:55;23.70;99.90
46458;DHT22;32155;54.076;12.092;2022-07-21T00:48:21;23.60;99.90
46458;DHT22;32155;54.076;12.092;2022-07-21T00:50:47;23.60;99.90
46458;DHT22;32155;54.076;12.092;2022-07-21T00:53:13;23.60;99.90
46458;DHT22;32155;54.076;12.092;2022-07-21T00:55:42;23.50;99.90
46458;DHT22;32155;54.076;12.092;2022-07-21T00:58:11;23.40;99.90
46458;DHT22;32155;54.076;12.092;2022-07-21T01:00:37;23.40;99.90
46458;DHT22;32155;54.076;12.092;2022-07-21T01:03:03;23.40;99.90
46458;DHT22;32155;54.076;12.092;2022-07-21T01:05:31;23.30;99.90
46458;DHT22;32155;54.076;12.092;2022-07-21T01:07:57;23.30;99.90
46458;DHT22;32155;54.076;12.092;2022-07-21T01:10:28;23.20;99.90
46458;DHT22;32155;54.076;12.092;2022-07-21T01:12:53;23.10;99.90
46458;DHT22;32155;54.076;12.092;2022-07-21T01:15:22;23.10;99.90
46458;DHT22;32155;54.076;12.092;2022-07-21T01:17:48;23.10;99.90
46458;DHT22;32155;54.076;12.092;2022-07-21T01:20:14;23.10;99.90
46458;DHT22;32155;54.076;12.092;2022-07-21T01:22:41;23.00;99.90
46458;DHT22;32155;54.076;12.092;2022-07-21T01:25:07;23.00;99.90
46458;DHT22;32155;54.076;12.092;2022-07-21T01:27:36;23.00;99.90
46458;DHT22;32155;54.076;12.092;2022-07-21T01:30:03;23.00;99.90
46458;DHT22;32155;54.076;12.092;2022-07-21T01:32:36;22.90;99.90
46458;DHT22;32155;54.076;12.092;2022-07-21T01:35:04;22.90;99.90
46458;DHT22;32155;54.076;12.092;2022-07-21T01:37:30;22.90;99.90
46458;DHT22;32155;54.076;12.092;2022-07-21T01:40:01;22.80;99.90
46458;DHT22;32155;54.076;12.092;2022-07-21T01:45:52;22.80;99.90
46458;DHT22;32155;54.076;12.092;2022-07-21T01:48:21;22.70;99.90
46458;DHT22;32155;54.076;12.092;2022-07-21T01:50:46;22.70;99.90
46458;DHT22;32155;54.076;12.092;2022-07-21T01:53:12;22.60;99.90
46458;DHT22;32155;54.076;12.092;2022-07-21T01:55:37;22.60;99.90
46458;DHT22;32155;54.076;12.092;2022-07-21T01:58:05;22.50;99.90
46458;DHT22;32155;54.076;12.092;2022-07-21T02:00:31;22.40;99.90
46458;DHT22;32155;54.076;12.092;2022-07-21T02:02:56;22.40;99.90
46458;DHT22;32155;54.076;12.092;2022-07-21T02:05:22;22.40;99.90
46458;DHT22;32155;54.076;12.092;2022-07-21T02:07:48;22.30;99.90
46458;DHT22;32155;54.076;12.092;2022-07-21T02:10:14;22.30;99.90
46458;DHT22;32155;54.076;12.092;2022-07-21T02:12:40;22.30;99.90
46458;DHT22;32155;54.076;12.092;2022-07-21T02:15:07;22.20;99.90
46458;DHT22;32155;54.076;12.092;2022-07-21T02:17:36;22.20;99.90
46458;DHT22;32155;54.076;12.092;2022-07-21T02:20:02;22.20;99.90
46458;DHT22;32155;54.076;12.092;2022-07-21T02:22:27;22.20;99.90
46458;DHT22;32155;54.076;12.092;2022-07-21T02:24:53;22.10;99.90
46458;DHT22;32155;54.076;12.092;2022-07-21T02:27:21;22.10;99.90
46458;DHT22;32155;54.076;12.092;2022-07-21T02:29:46;22.10;99.90
46458;DHT22;32155;54.076;12.092;2022-07-21T02:32:12;22.10;99.90
46458;DHT22;32155;54.076;12.092;2022-07-21T02:34:37;22.10;99.90
46458;DHT22;32155;54.076;12.092;2022-07-21T02:37:03;22.00;99.90
46458;DHT22;32155;54.076;12.092;2022-07-21T02:39:31;22.10;99.90
46458;DHT22;32155;54.076;12.092;2022-07-21T02:41:56;22.00;99.90
46458;DHT22;32155;54.076;12.092;2022-07-21T02:44:22;22.00;99.90
46458;DHT22;32155;54.076;12.092;2022-07-21T02:46:48;22.00;99.90
46458;DHT22;32155;54.076;12.092;2022-07-21T02:49:14;22.00;99.90
46458;DHT22;32155;54.076;12.092;2022-07-21T02:51:42;21.90;99.90
46458;DHT22;32155;54.076;12.092;2022-07-21T02:54:10;21.90;99.90
46458;DHT22;32155;54.076;12.092;2022-07-21T02:56:38;21.90;99.90
46458;DHT22;32155;54.076;12.092;2022-07-21T02:59:04;21.80;99.90
46458;DHT22;32155;54.076;12.092;2022-07-21T03:01:29;21.80;99.90
46458;DHT22;32155;54.076;12.092;2022-07-21T03:03:55;21.80;99.90
46458;DHT22;32155;54.076;12.092;2022-07-21T03:06:20;21.80;99.90
46458;DHT22;32155;54.076;12.092;2022-07-21T03:08:46;21.80;99.90
46458;DHT22;32155;54.076;12.092;2022-07-21T03:11:14;21.70;99.90
46458;DHT22;32155;54.076;12.092;2022-07-21T03:13:40;21.70;99.90
46458;DHT22;32155;54.076;12.092;2022-07-21T03:16:07;21.70;99.90
46458;DHT22;32155;54.076;12.092;2022-07-21T03:18:33;21.70;99.90
46458;DHT22;32155;54.076;12.092;2022-07-21T03:21:00;21.70;99.90
46458;DHT22;32155;54.076;12.092;2022-07-21T03:23:28;21.70;99.90
46458;DHT22;32155;54.076;12.092;2022-07-21T03:25:53;21.70;99.90
46458;DHT22;32155;54.076;12.092;2022-07-21T03:28:19;21.60;99.90
46458;DHT22;32155;54.076;12.092;2022-07-21T03:30:44;21.60;99.90
46458;DHT22;32155;54.076;12.092;2022-07-21T03:33:10;21.60;99.90
46458;DHT22;32155;54.076;12.092;2022-07-21T03:35:36;21.70;99.90
46458;DHT22;32155;54.076;12.092;2022-07-21T03:38:03;21.70;99.90
46458;DHT22;32155;54.076;12.092;2022-07-21T03:40:30;21.70;99.90
46458;DHT22;32155;54.076;12.092;2022-07-21T03:43:00;21.70;99.90
46458;DHT22;32155;54.076;12.092;2022-07-21T03:45:26;21.70;99.90
46458;DHT22;32155;54.076;12.092;2022-07-21T03:47:55;21.70;99.90
46458;DHT22;32155;54.076;12.092;2022-07-21T03:50:21;21.70;99.90
46458;DHT22;32155;54.076;12.092;2022-07-21T03:52:46;21.80;99.90
46458;DHT22;32155;54.076;12.092;2022-07-21T03:55:12;21.80;99.90
46458;DHT22;32155;54.076;12.092;2022-07-21T03:57:41;21.80;99.90
46458;DHT22;32155;54.076;12.092;2022-07-21T04:00:08;21.90;99.90
46458;DHT22;32155;54.076;12.092;2022-07-21T04:02:34;21.90;99.90
46458;DHT22;32155;54.076;12.092;2022-07-21T04:05:00;21.90;99.90
46458;DHT22;32155;54.076;12.092;2022-07-21T04:07:25;22.00;99.90
46458;DHT22;32155;54.076;12.092;2022-07-21T04:09:53;22.00;99.90
46458;DHT22;32155;54.076;12.092;2022-07-21T04:12:19;22.10;99.90
46458;DHT22;32155;54.076;12.092;2022-07-21T04:14:44;22.10;99.90
46458;DHT22;32155;54.076;12.092;2022-07-21T04:17:13;22.20;99.90
46458;DHT22;32155;54.076;12.092;2022-07-21T04:19:38;22.30;99.90
46458;DHT22;32155;54.076;12.092;2022-07-21T04:22:04;22.20;99.90
46458;DHT22;32155;54.076;12.092;2022-07-21T04:24:31;22.30;99.90
46458;DHT22;32155;54.076;12.092;2022-07-21T04:26:59;22.30;99.90
46458;DHT22;32155;54.076;12.092;2022-07-21T04:29:25;22.40;99.90
46458;DHT22;32155;54.076;12.092;2022-07-21T04:31:50;22.50;99.90
46458;DHT22;32155;54.076;12.092;2022-07-21T04:34:16;22.60;99.90
46458;DHT22;32155;54.076;12.092;2022-07-21T04:36:41;22.70;99.90
46458;DHT22;32155;54.076;12.092;2022-07-21T04:39:09;22.80;99.90
46458;DHT22;32155;54.076;12.092;2022-07-21T04:41:35;22.80;99.90
46458;DHT22;32155;54.076;12.092;2022-07-21T04:44:00;22.90;99.90
46458;DHT22;32155;54.076;12.092;2022-07-21T04:46:26;23.00;99.90
46458;DHT22;32155;54.076;12.092;2022-07-21T04:48:52;23.10;99.90
46458;DHT22;32155;54.076;12.092;2022-07-21T04:51:17;23.20;99.90
46458;DHT22;32155;54.076;12.092;2022-07-21T04:53:43;23.30;99.90
46458;DHT22;32155;54.076;12.092;2022-07-21T04:56:08;23.30;99.90
46458;DHT22;32155;54.076;12.092;2022-07-21T04:58:34;23.30;99.90
46458;DHT22;32155;54.076;12.092;2022-07-21T05:00:59;23.40;99.90
46458;DHT22;32155;54.076;12.092;2022-07-21T05:03:25;23.50;99.90
46458;DHT22;32155;54.076;12.092;2022-07-21T05:05:50;23.50;99.90
46458;DHT22;32155;54.076;12.092;2022-07-21T05:08:16;23.60;99.90
46458;DHT22;32155;54.076;12.092;2022-07-21T05:10:42;23.60;99.90
46458;DHT22;32155;54.076;12.092;2022-07-21T05:13:09;23.60;99.90
46458;DHT22;32155;54.076;12.092;2022-07-21T05:15:35;23.50;99.90
46458;DHT22;32155;54.076;12.092;2022-07-21T05:18:00;23.60;99.90
46458;DHT22;32155;54.076;12.092;2022-07-21T05:20:26;23.70;99.90
46458;DHT22;32155;54.076;12.092;2022-07-21T05:22:51;23.70;99.90
46458;DHT22;32155;54.076;12.092;2022-07-21T05:25:17;23.80;99.90
46458;DHT22;32155;54.076;12.092;2022-07-21T05:27:43;23.80;99.90
46458;DHT22;32155;54.076;12.092;2022-07-21T05:30:08;23.80;99.90
46458;DHT22;32155;54.076;12.092;2022-07-21T05:32:34;23.80;99.90
46458;DHT22;32155;54.076;12.092;2022-07-21T05:35:00;23.90;99.90
46458;DHT22;32155;54.076;12.092;2022-07-21T05:37:33;24.00;99.90
46458;DHT22;32155;54.076;12.092;2022-07-21T05:39:59;23.90;99.90
46458;DHT22;32155;54.076;12.092;2022-07-21T05:42:25;24.00;99.90
46458;DHT22;32155;54.076;12.092;2022-07-21T05:44:51;24.30;99.90
46458;DHT22;32155;54.076;12.092;2022-07-21T05:47:17;24.50;99.90
46458;DHT22;32155;54.076;12.092;2022-07-21T05:49:42;24.70;99.90
46458;DHT22;32155;54.076;12.092;2022-07-21T05:52:08;25.00;99.90
46458;DHT22;32155;54.076;12.092;2022-07-21T05:54:34;25.20;99.90
46458;DHT22;32155;54.076;12.092;2022-07-21T05:56:59;25.60;99.90
46458;DHT22;32155;54.076;12.092;2022-07-21T05:59:25;25.90;99.90
46458;DHT22;32155;54.076;12.092;2022-07-21T06:01:50;25.90;99.90
46458;DHT22;32155;54.076;12.092;2022-07-21T06:04:16;26.20;99.90
46458;DHT22;32155;54.076;12.092;2022-07-21T06:06:41;25.80;99.90
46458;DHT22;32155;54.076;12.092;2022-07-21T06:09:07;25.60;99.90
46458;DHT22;32155;54.076;12.092;2022-07-21T06:11:33;25.70;99.90
46458;DHT22;32155;54.076;12.092;2022-07-21T06:14:01;26.00;99.90
46458;DHT22;32155;54.076;12.092;2022-07-21T06:16:29;25.70;99.90
46458;DHT22;32155;54.076;12.092;2022-07-21T06:18:55;25.60;99.90
46458;DHT22;32155;54.076;12.092;2022-07-21T06:21:21;26.00;99.90
46458;DHT22;32155;54.076;12.092;2022-07-21T06:23:47;26.90;99.90
46458;DHT22;32155;54.076;12.092;2022-07-21T06:26:12;27.40;99.90
46458;DHT22;32155;54.076;12.092;2022-07-21T06:28:38;27.30;99.90
46458;DHT22;32155;54.076;12.092;2022-07-21T06:31:03;27.20;99.90
46458;DHT22;32155;54.076;12.092;2022-07-21T06:33:29;26.80;99.90
46458;DHT22;32155;54.076;12.092;2022-07-21T06:35:54;27.40;99.90
46458;DHT22;32155;54.076;12.092;2022-07-21T06:38:20;27.80;99.90
46458;DHT22;32155;54.076;12.092;2022-07-21T06:40:46;28.20;99.90
46458;DHT22;32155;54.076;12.092;2022-07-21T06:43:11;28.50;99.90
46458;DHT22;32155;54.076;12.092;2022-07-21T06:45:37;29.00;99.90
46458;DHT22;32155;54.076;12.092;2022-07-21T06:48:03;28.60;99.90
46458;DHT22;32155;54.076;12.092;2022-07-21T06:50:32;28.40;99.90
46458;DHT22;32155;54.076;12.092;2022-07-21T06:52:57;27.90;99.90
46458;DHT22;32155;54.076;12.092;2022-07-21T06:55:25;27.70;99.90
46458;DHT22;32155;54.076;12.092;2022-07-21T06:57:51;28.40;99.90
46458;DHT22;32155;54.076;12.092;2022-07-21T07:00:16;28.80;99.90
46458;DHT22;32155;54.076;12.092;2022-07-21T07:02:42;29.00;99.90
46458;DHT22;32155;54.076;12.092;2022-07-21T07:05:08;29.20;99.90
46458;DHT22;32155;54.076;12.092;2022-07-21T07:07:33;29.10;99.90
46458;DHT22;32155;54.076;12.092;2022-07-21T07:09:59;28.30;99.90
46458;DHT22;32155;54.076;12.092;2022-07-21T07:12:25;27.20;99.90
46458;DHT22;32155;54.076;12.092;2022-07-21T07:14:50;27.00;99.90
46458;DHT22;32155;54.076;12.092;2022-07-21T07:19:47;27.20;99.90
46458;DHT22;32155;54.076;12.092;2022-07-21T07:22:15;27.70;99.90
46458;DHT22;32155;54.076;12.092;2022-07-21T07:24:41;27.80;99.90
46458;DHT22;32155;54.076;12.092;2022-07-21T07:27:06;27.90;99.90
46458;DHT22;32155;54.076;12.092;2022-07-21T07:29:32;28.40;99.90
46458;DHT22;32155;54.076;12.092;2022-07-21T07:31:58;29.10;99.90
46458;DHT22;32155;54.076;12.092;2022-07-21T07:34:24;29.50;99.90
46458;DHT22;32155;54.076;12.092;2022-07-21T07:36:49;30.00;99.90
46458;DHT22;32155;54.076;12.092;2022-07-21T07:39:15;30.50;99.90
46458;DHT22;32155;54.076;12.092;2022-07-21T07:41:43;29.60;99.90
46458;DHT22;32155;54.076;12.092;2022-07-21T07:44:11;28.70;99.90
46458;DHT22;32155;54.076;12.092;2022-07-21T07:46:39;27.90;99.90
46458;DHT22;32155;54.076;12.092;2022-07-21T07:49:04;28.00;99.90
46458;DHT22;32155;54.076;12.092;2022-07-21T07:51:30;27.90;99.90
46458;DHT22;32155;54.076;12.092;2022-07-21T07:53:55;27.40;99.90
46458;DHT22;32155;54.076;12.092;2022-07-21T07:56:23;27.30;99.90
46458;DHT22;32155;54.076;12.092;2022-07-21T07:58:50;27.50;99.90
46458;DHT22;32155;54.076;12.092;2022-07-21T08:01:15;27.40;99.90
46458;DHT22;32155;54.076;12.092;2022-07-21T08:03:41;27.10;99.90
46458;DHT22;32155;54.076;12.092;2022-07-21T08:06:07;27.00;99.90
46458;DHT22;32155;54.076;12.092;2022-07-21T08:11:01;26.80;99.90
46458;DHT22;32155;54.076;12.092;2022-07-21T08:13:27;26.70;99.90
46458;DHT22;32155;54.076;12.092;2022-07-21T08:15:52;26.60;99.90
46458;DHT22;32155;54.076;12.092;2022-07-21T08:18:18;26.40;99.90
46458;DHT22;32155;54.076;12.092;2022-07-21T08:20:44;26.50;99.90
46458;DHT22;32155;54.076;12.092;2022-07-21T08:23:12;26.70;99.90
46458;DHT22;32155;54.076;12.092;2022-07-21T08:25:39;27.00;99.90
46458;DHT22;32155;54.076;12.092;2022-07-21T08:28:05;27.20;99.90
46458;DHT22;32155;54.076;12.092;2022-07-21T08:30:30;27.30;99.90
46458;DHT22;32155;54.076;12.092;2022-07-21T08:32:57;27.10;99.90
46458;DHT22;32155;54.076;12.092;2022-07-21T08:35:22;26.70;99.90
46458;DHT22;32155;54.076;12.092;2022-07-21T08:37:58;26.10;99.90
46458;DHT22;32155;54.076;12.092;2022-07-21T08:40:25;26.30;99.90
46458;DHT22;32155;54.076;12.092;2022-07-21T08:42:51;26.70;99.90
46458;DHT22;32155;54.076;12.092;2022-07-21T08:45:17;26.70;99.90
46458;DHT22;32155;54.076;12.092;2022-07-21T08:47:42;27.00;99.90
46458;DHT22;32155;54.076;12.092;2022-07-21T08:50:08;28.60;99.90
46458;DHT22;32155;54.076;12.092;2022-07-21T08:52:34;30.40;99.90
46458;DHT22;32155;54.076;12.092;2022-07-21T08:55:00;30.70;99.90
46458;DHT22;32155;54.076;12.092;2022-07-21T08:57:28;30.00;99.90
46458;DHT22;32155;54.076;12.092;2022-07-21T08:59:53;29.10;99.90
46458;DHT22;32155;54.076;12.092;2022-07-21T09:02:32;28.40;99.90
46458;DHT22;32155;54.076;12.092;2022-07-21T09:04:59;28.40;99.90
46458;DHT22;32155;54.076;12.092;2022-07-21T09:07:24;29.00;99.90
46458;DHT22;32155;54.076;12.092;2022-07-21T09:09:54;28.80;99.90
46458;DHT22;32155;54.076;12.092;2022-07-21T09:12:22;27.70;99.90
46458;DHT22;32155;54.076;12.092;2022-07-21T09:14:48;27.70;99.90
46458;DHT22;32155;54.076;12.092;2022-07-21T09:17:15;28.60;99.90
46458;DHT22;32155;54.076;12.092;2022-07-21T09:19:43;30.00;99.90
46458;DHT22;32155;54.076;12.092;2022-07-21T09:22:12;30.00;99.90
46458;DHT22;32155;54.076;12.092;2022-07-21T09:24:38;30.00;99.90
46458;DHT22;32155;54.076;12.092;2022-07-21T09:27:05;30.20;99.90
46458;DHT22;32155;54.076;12.092;2022-07-21T09:29:33;30.30;99.90
46458;DHT22;32155;54.076;12.092;2022-07-21T09:32:01;30.40;99.90
46458;DHT22;32155;54.076;12.092;2022-07-21T09:34:36;31.80;99.90
46458;DHT22;32155;54.076;12.092;2022-07-21T09:37:04;33.30;99.90
46458;DHT22;32155;54.076;12.092;2022-07-21T09:44:40;34.30;99.90
46458;DHT22;32155;54.076;12.092;2022-07-21T09:47:13;34.30;99.90
46458;DHT22;32155;54.076;12.092;2022-07-21T09:49:40;33.40;99.90
46458;DHT22;32155;54.076;12.092;2022-07-21T09:52:19;32.10;99.90
46458;DHT22;32155;54.076;12.092;2022-07-21T10:24:17;32.90;99.90
46458;DHT22;32155;54.076;12.092;2022-07-21T10:35:58;32.90;99.90
46458;DHT22;32155;54.076;12.092;2022-07-21T10:47:53;33.40;99.90
46458;DHT22;32155;54.076;12.092;2022-07-21T10:56:28;33.70;99.90
46458;DHT22;32155;54.076;12.092;2022-07-21T10:59:04;36.70;99.90
46458;DHT22;32155;54.076;12.092;2022-07-21T11:01:34;38.90;99.90
46458;DHT22;32155;54.076;12.092;2022-07-21T11:04:26;39.80;97.30
46458;DHT22;32155;54.076;12.092;2022-07-21T11:19:46;42.30;85.30
46458;DHT22;32155;54.076;12.092;2022-07-21T11:22:30;42.60;80.50
46458;DHT22;32155;54.076;12.092;2022-07-21T11:25:24;42.90;80.00
46458;DHT22;32155;54.076;12.092;2022-07-21T11:34:25;44.30;67.50
46458;DHT22;32155;54.076;12.092;2022-07-21T11:37:55;39.40;70.30
46458;DHT22;32155;54.076;12.092;2022-07-21T11:50:46;33.30;84.60
46458;DHT22;32155;54.076;12.092;2022-07-21T11:53:32;32.80;88.00
46458;DHT22;32155;54.076;12.092;2022-07-21T11:55:52;33.00;88.80
46458;DHT22;32155;54.076;12.092;2022-07-21T17:57:25;23.90;99.90
46458;DHT22;32155;54.076;12.092;2022-07-21T18:17:58;21.60;99.90
46458;DHT22;32155;54.076;12.092;2022-07-21T18:20:30;21.60;99.90
46458;DHT22;32155;54.076;12.092;2022-07-21T18:23:00;21.80;99.90
46458;DHT22;32155;54.076;12.092;2022-07-21T18:32:14;22.30;99.90
46458;DHT22;32155;54.076;12.092;2022-07-21T18:34:50;22.30;99.90
46458;DHT22;32155;54.076;12.092;2022-07-21T18:37:32;22.30;99.90
46458;DHT22;32155;54.076;12.092;2022-07-21T18:52:42;22.10;99.90
46458;DHT22;32155;54.076;12.092;2022-07-21T18:55:27;22.10;99.90
46458;DHT22;32155;54.076;12.092;2022-07-21T18:58:16;22.30;99.90
46458;DHT22;32155;54.076;12.092;2022-07-21T19:03:49;22.30;99.90
46458;DHT22;32155;54.076;12.092;2022-07-21T19:06:25;22.20;99.90
46458;DHT22;32155;54.076;12.092;2022-07-21T19:08:51;22.10;99.90
46458;DHT22;32155;54.076;12.092;2022-07-21T19:11:17;22.00;99.90
46458;DHT22;32155;54.076;12.092;2022-07-21T19:13:53;22.00;99.90
46458;DHT22;32155;54.076;12.092;2022-07-21T19:16:37;22.00;99.90
46458;DHT22;32155;54.076;12.092;2022-07-21T19:19:25;21.80;99.90
46458;DHT22;32155;54.076;12.092;2022-07-21T19:22:00;21.50;99.90
46458;DHT22;32155;54.076;12.092;2022-07-21T19:24:46;21.30;99.90
46458;DHT22;32155;54.076;12.092;2022-07-21T19:27:14;21.10;99.90
46458;DHT22;32155;54.076;12.092;2022-07-21T19:33:08;21.00;99.90
46458;DHT22;32155;54.076;12.092;2022-07-21T19:38:50;20.90;99.90
46458;DHT22;32155;54.076;12.092;2022-07-21T19:41:45;20.70;99.90
46458;DHT22;32155;54.076;12.092;2022-07-21T19:48:09;20.80;99.90
46458;DHT22;32155;54.076;12.092;2022-07-21T19:51:03;20.50;99.90
